Time;durP1;ratioP1;P1;durP2;ratioP2;P2;SDS_P1;SDS_P2;PMS_P1;PMS_P2;Temp;Humidity;BMP_temperature;BMP_pressure;BME280_temperature;BME280_humidity;BME280_pressure;Samples;Min_cycle;Max_cycle;Signal;HPM_P1;HPM_P2
2022/04/04 00:00:09;;;;;;;;;;;;;;;9.46;34.67;99425.00;4466616;32;35234;-83
2022/04/04 00:02:37;;;;;;;;;;;;;;;9.74;33.74;99423.88;4460244;32;34392;-83
2022/04/04 00:05:04;;;;;;;;;;;;;;;9.57;33.80;99433.00;4438963;32;33808;-83
2022/04/04 00:07:31;;;;;;;;;;;;;;;9.59;34.14;99433.06;4452053;32;34520;-83
2022/04/04 00:09:59;;;;;;;;;;;;;;;9.54;34.14;99432.94;4453401;32;33709;-82
2022/04/04 00:12:26;;;;;;;;;;;;;;;9.43;34.70;99434.41;4456176;32;34484;-82
2022/04/04 00:14:53;;;;;;;;;;;;;;;9.01;35.25;99440.38;4451009;32;34255;-84
2022/04/04 00:17:21;;;;;;;;;;;;;;;9.27;34.66;99439.25;4455745;32;35121;-84
2022/04/04 00:19:48;;;;;;;;;;;;;;;9.41;34.29;99431.81;4451064;32;35123;-83
2022/04/04 00:22:15;;;;;;;;;;;;;;;9.63;33.87;99433.16;4451030;32;34926;-83
2022/04/04 00:24:43;;;;;;;;;;;;;;;9.38;34.13;99434.34;4454693;32;34331;-81
2022/04/04 00:27:10;;;;;;;;;;;;;;;9.30;34.43;99435.00;4467120;32;34645;-84
2022/04/04 00:29:37;;;;;;;;;;;;;;;9.72;34.07;99435.91;4462258;32;35259;-82
2022/04/04 00:32:06;;;;;;;;;;;;;;;9.54;34.15;99432.94;4461905;32;33767;-81
2022/04/04 00:34:33;;;;;;;;;;;;;;;9.37;34.26;99442.94;4466796;32;33172;-82
2022/04/04 00:37:00;;;;;;;;;;;;;;;9.46;34.10;99437.09;4465959;32;33558;-84
2022/04/04 00:39:28;;;;;;;;;;;;;;;9.48;33.92;99438.00;4453816;32;34082;-82
2022/04/04 00:41:56;;;;;;;;;;;;;;;9.38;34.36;99438.63;4455214;32;33882;-82
2022/04/04 00:44:25;;;;;;;;;;;;;;;9.42;34.04;99436.13;4458264;32;34239;-80
2022/04/04 00:46:54;;;;;;;;;;;;;;;9.67;33.60;99437.53;4452962;32;33856;-81
2022/04/04 00:49:21;;;;;;;;;;;;;;;9.46;34.20;99434.50;4442535;32;34476;-81
2022/04/04 00:51:49;;;;;;;;;;;;;;;9.62;33.59;99440.88;4462112;32;34339;-82
2022/04/04 00:54:16;;;;;;;;;;;;;;;9.49;33.84;99430.25;4466318;32;32871;-81
2022/04/04 00:56:45;;;;;;;;;;;;;;;9.31;34.31;99436.75;4463632;32;36666;-82
2022/04/04 00:59:14;;;;;;;;;;;;;;;9.30;33.99;99435.00;4440410;32;34410;-85
2022/04/04 01:01:50;;;;;;;;;;;;;;;9.41;33.98;99439.59;4461991;32;35008;-81
2022/04/04 01:04:17;;;;;;;;;;;;;;;9.29;34.07;99433.28;4459541;32;33280;-80
2022/04/04 01:06:45;;;;;;;;;;;;;;;9.46;33.92;99437.09;4467180;32;33843;-84
2022/04/04 01:09:15;;;;;;;;;;;;;;;9.39;33.87;99435.19;4451385;32;35334;-83
2022/04/04 01:12:00;;;;;;;;;;;;;;;9.32;34.12;99436.81;4454587;32;33886;-81
2022/04/04 01:14:28;;;;;;;;;;;;;;;9.48;33.71;99440.59;4462917;32;33495;-81
2022/04/04 01:16:55;;;;;;;;;;;;;;;9.17;34.19;99437.34;4462422;32;34325;-80
2022/04/04 01:19:22;;;;;;;;;;;;;;;9.24;34.04;99434.03;4463181;32;34275;-81
2022/04/04 01:21:50;;;;;;;;;;;;;;;9.19;33.97;99435.63;4453959;32;34778;-84
2022/04/04 01:24:18;;;;;;;;;;;;;;;9.11;33.98;99446.66;4468011;32;33181;-82
2022/04/04 01:26:46;;;;;;;;;;;;;;;8.93;34.37;99452.25;4456699;32;33383;-83
2022/04/04 01:29:13;;;;;;;;;;;;;;;9.19;34.15;99447.69;4464874;32;35018;-83
2022/04/04 01:31:40;;;;;;;;;;;;;;;9.30;34.26;99438.47;4461051;32;35022;-81
2022/04/04 01:34:07;;;;;;;;;;;;;;;9.56;33.72;99444.22;4457142;32;33061;-82
2022/04/04 01:36:35;;;;;;;;;;;;;;;9.22;34.09;99453.81;4464950;32;34446;-81
2022/04/04 01:39:02;;;;;;;;;;;;;;;9.17;34.34;99449.41;4438690;32;34254;-81
2022/04/04 01:41:29;;;;;;;;;;;;;;;9.20;34.19;99445.13;4442381;32;33745;-84
2022/04/04 01:43:57;;;;;;;;;;;;;;;9.12;34.05;99444.09;4465435;32;34493;-83
2022/04/04 01:46:24;;;;;;;;;;;;;;;9.12;34.04;99446.69;4463909;32;34219;-82
2022/04/04 01:48:53;;;;;;;;;;;;;;;9.26;33.88;99455.62;4463483;32;35194;-82
2022/04/04 01:51:21;;;;;;;;;;;;;;;9.23;33.83;99445.22;4464465;32;35274;-81
2022/04/04 01:53:49;;;;;;;;;;;;;;;9.03;34.33;99449.06;4447587;32;32788;-82
2022/04/04 01:56:16;;;;;;;;;;;;;;;9.27;33.84;99438.41;4455670;32;33936;-80
2022/04/04 01:58:44;;;;;;;;;;;;;;;9.37;33.52;99435.19;4462392;32;33918;-81
2022/04/04 02:01:15;;;;;;;;;;;;;;;9.25;34.01;99451.31;4450420;32;33872;-84
2022/04/04 02:03:44;;;;;;;;;;;;;;;8.99;34.46;99447.25;4449711;32;32999;-82
2022/04/04 02:06:11;;;;;;;;;;;;;;;8.79;34.52;99444.19;4465872;32;34825;-82
2022/04/04 02:08:39;;;;;;;;;;;;;;;9.15;34.10;99454.50;4453744;32;33438;-81
2022/04/04 02:11:07;;;;;;;;;;;;;;;9.16;33.74;99451.09;4455992;32;34039;-82
2022/04/04 02:13:35;;;;;;;;;;;;;;;9.19;33.40;99439.94;4452600;32;33581;-81
2022/04/04 02:16:04;;;;;;;;;;;;;;;9.08;33.60;99444.00;4452296;32;33652;-81
2022/04/04 02:18:32;;;;;;;;;;;;;;;9.14;33.39;99444.16;4452989;32;33739;-84
2022/04/04 02:20:59;;;;;;;;;;;;;;;9.18;33.59;99441.66;4449116;32;34123;-80
2022/04/04 02:23:27;;;;;;;;;;;;;;;9.10;34.00;99445.78;4438280;32;33827;-82
2022/04/04 02:25:55;;;;;;;;;;;;;;;9.16;33.77;99438.16;4453179;32;33923;-82
2022/04/04 02:28:22;;;;;;;;;;;;;;;8.74;34.74;99436.31;4453016;32;34281;-81
2022/04/04 02:30:50;;;;;;;;;;;;;;;8.74;34.92;99441.47;4458568;32;34039;-80
2022/04/04 02:33:19;;;;;;;;;;;;;;;8.86;34.97;99440.03;4458711;32;33581;-81
2022/04/04 02:35:47;;;;;;;;;;;;;;;9.14;34.21;99436.37;4462969;32;34948;-80
2022/04/04 02:38:15;;;;;;;;;;;;;;;9.12;34.16;99440.62;4460571;32;35136;-81
2022/04/04 02:40:42;;;;;;;;;;;;;;;8.84;34.71;99452.94;4466421;32;34303;-82
2022/04/04 02:43:09;;;;;;;;;;;;;;;8.87;34.70;99446.97;4466612;32;34395;-82
2022/04/04 02:45:37;;;;;;;;;;;;;;;8.67;34.70;99446.47;4452650;32;34115;-82
2022/04/04 02:48:04;;;;;;;;;;;;;;;8.65;34.38;99441.25;4462481;32;34417;-82
2022/04/04 02:50:32;;;;;;;;;;;;;;;8.67;34.42;99444.75;4465553;32;33865;-82
2022/04/04 02:52:59;;;;;;;;;;;;;;;8.99;33.75;99442.06;4457757;32;33162;-82
2022/04/04 02:58:13;;;;;;;;;;;;;;;8.86;34.07;99451.22;4458472;32;34869;-82
2022/04/04 03:00:41;;;;;;;;;;;;;;;8.76;34.15;99451.87;4446747;32;34142;-82
2022/04/04 03:03:08;;;;;;;;;;;;;;;8.80;34.20;99456.28;4463205;32;33806;-83
2022/04/04 03:05:36;;;;;;;;;;;;;;;8.77;33.68;99458.78;4462815;32;34290;-82
2022/04/04 03:08:04;;;;;;;;;;;;;;;8.80;34.04;99455.41;4458727;32;34359;-82
2022/04/04 03:10:32;;;;;;;;;;;;;;;8.50;34.59;99456.38;4442233;32;34179;-81
2022/04/04 03:13:00;;;;;;;;;;;;;;;8.49;34.43;99455.50;4466560;32;33160;-83
2022/04/04 03:15:28;;;;;;;;;;;;;;;8.57;34.36;99460.00;4456182;32;35177;-83
2022/04/04 03:17:55;;;;;;;;;;;;;;;8.74;33.76;99461.28;4452455;32;35238;-85
2022/04/04 03:20:23;;;;;;;;;;;;;;;8.60;33.53;99463.53;4456928;32;34471;-82
2022/04/04 03:22:51;;;;;;;;;;;;;;;8.56;33.90;99459.13;4443143;32;34304;-82
2022/04/04 03:25:19;;;;;;;;;;;;;;;8.63;33.73;99455.84;4445269;32;34832;-82
2022/04/04 03:27:47;;;;;;;;;;;;;;;8.71;33.49;99456.03;4457605;32;34487;-80
2022/04/04 03:30:17;;;;;;;;;;;;;;;8.61;33.83;99461.84;4462477;32;34075;-82
2022/04/04 03:32:45;;;;;;;;;;;;;;;8.74;33.38;99459.56;4440611;32;33506;-81
2022/04/04 03:35:15;;;;;;;;;;;;;;;8.66;33.43;99461.09;4451235;32;35012;-82
2022/04/04 03:37:45;;;;;;;;;;;;;;;8.38;33.88;99462.13;4456984;32;34200;-83
2022/04/04 03:40:13;;;;;;;;;;;;;;;8.38;33.70;99456.06;4451756;32;34375;-83
2022/04/04 03:42:40;;;;;;;;;;;;;;;8.63;33.25;99458.44;4452640;32;34064;-82
2022/04/04 03:45:08;;;;;;;;;;;;;;;8.42;33.72;99468.25;4455130;32;34613;-82
2022/04/04 03:47:35;;;;;;;;;;;;;;;8.24;33.94;99464.28;4460766;32;34447;-81
2022/04/04 03:50:05;;;;;;;;;;;;;;;8.42;33.69;99471.69;4463292;32;34084;-82
2022/04/04 03:52:32;;;;;;;;;;;;;;;8.34;33.44;99464.56;4465034;32;33609;-81
2022/04/04 03:54:59;;;;;;;;;;;;;;;8.25;33.50;99466.03;4444467;32;34047;-82
2022/04/04 03:57:29;;;;;;;;;;;;;;;8.35;33.32;99468.88;4461733;32;34679;-82
2022/04/04 03:59:57;;;;;;;;;;;;;;;8.20;33.50;99467.63;4464186;32;34777;-82
2022/04/04 04:02:24;;;;;;;;;;;;;;;8.34;33.24;99470.59;4462481;32;33710;-83
2022/04/04 04:04:52;;;;;;;;;;;;;;;8.24;33.56;99469.44;4466604;32;33989;-82
2022/04/04 04:07:24;;;;;;;;;;;;;;;8.28;33.54;99471.28;4461852;32;34501;-82
2022/04/04 04:09:52;;;;;;;;;;;;;;;7.90;34.21;99471.94;4463736;32;35033;-84
2022/04/04 04:12:20;;;;;;;;;;;;;;;8.04;33.53;99471.50;4455465;32;34458;-82
2022/04/04 04:14:48;;;;;;;;;;;;;;;8.16;33.40;99481.28;4455814;32;34080;-81
2022/04/04 04:17:16;;;;;;;;;;;;;;;8.09;33.71;99479.38;4464691;32;34545;-83
2022/04/04 04:22:30;;;;;;;;;;;;;;;8.14;33.73;99471.75;4462094;32;33637;-81
2022/04/04 04:24:58;;;;;;;;;;;;;;;8.20;33.73;99471.91;4464568;32;35066;-84
2022/04/04 04:27:26;;;;;;;;;;;;;;;8.17;33.43;99467.53;4452605;32;35045;-83
2022/04/04 04:29:54;;;;;;;;;;;;;;;8.08;33.34;99472.47;4449127;32;34366;-80
2022/04/04 04:32:21;;;;;;;;;;;;;;;8.29;33.10;99478.19;4468008;32;33626;-81
2022/04/04 04:34:50;;;;;;;;;;;;;;;8.35;33.37;99474.03;4457340;32;34057;-82
2022/04/04 04:37:18;;;;;;;;;;;;;;;8.07;33.90;99470.72;4453374;32;35326;-82
2022/04/04 04:39:45;;;;;;;;;;;;;;;8.09;33.91;99470.75;4467930;32;34279;-82
2022/04/04 04:42:12;;;;;;;;;;;;;;;8.33;33.42;99473.97;4461036;32;34262;-82
2022/04/04 04:44:40;;;;;;;;;;;;;;;8.38;33.52;99484.50;4468341;32;34886;-82
2022/04/04 04:47:08;;;;;;;;;;;;;;;8.47;33.73;99477.84;4472091;32;35188;-84
2022/04/04 04:49:35;;;;;;;;;;;;;;;8.48;33.72;99483.88;4460714;32;34317;-82
2022/04/04 04:52:03;;;;;;;;;;;;;;;8.79;33.37;99490.72;4458002;32;33383;-82
2022/04/04 04:54:30;;;;;;;;;;;;;;;9.36;32.69;99484.31;4460295;32;32816;-82
2022/04/04 04:56:57;;;;;;;;;;;;;;;9.63;32.03;99484.06;4465967;32;33318;-82
2022/04/04 04:59:25;;;;;;;;;;;;;;;10.09;31.31;99479.81;4466399;32;34865;-81
2022/04/04 05:01:52;;;;;;;;;;;;;;;10.34;31.17;99484.66;4452799;32;33885;-81
2022/04/04 05:04:19;;;;;;;;;;;;;;;10.52;31.02;99481.50;4459119;32;34125;-82
2022/04/04 05:06:50;;;;;;;;;;;;;;;10.80;31.14;99482.00;4459907;32;35231;-81
2022/04/04 05:09:19;;;;;;;;;;;;;;;11.00;30.82;99483.19;4452267;32;35337;-82
2022/04/04 05:11:47;;;;;;;;;;;;;;;11.19;30.22;99481.78;4452241;32;33653;-82
2022/04/04 05:14:17;;;;;;;;;;;;;;;11.47;29.51;99484.75;4452909;32;33659;-82
2022/04/04 05:16:44;;;;;;;;;;;;;;;11.66;29.59;99492.81;4452554;32;34567;-82
2022/04/04 05:19:12;;;;;;;;;;;;;;;12.00;29.53;99489.81;4438565;32;34378;-82
2022/04/04 05:21:40;;;;;;;;;;;;;;;12.02;29.05;99482.94;4452594;32;34378;-82
2022/04/04 05:24:07;;;;;;;;;;;;;;;12.16;28.71;99483.97;4452515;32;34479;-82
2022/04/04 05:26:35;;;;;;;;;;;;;;;12.24;28.03;99484.06;4452429;32;34378;-82
2022/04/04 05:29:02;;;;;;;;;;;;;;;12.23;28.52;99484.88;4452709;32;35079;-82
2022/04/04 05:31:30;;;;;;;;;;;;;;;12.27;28.15;99489.28;4453046;32;33737;-86
2022/04/04 05:33:58;;;;;;;;;;;;;;;12.27;28.56;99490.13;4438631;32;34300;-82
2022/04/04 05:36:26;;;;;;;;;;;;;;;12.47;28.08;99497.31;4452611;32;34488;-81
2022/04/04 05:38:54;;;;;;;;;;;;;;;12.51;28.06;99494.75;4452460;32;35184;-81
2022/04/04 05:41:22;;;;;;;;;;;;;;;12.47;28.07;99494.72;4452531;32;33521;-82
2022/04/04 05:43:49;;;;;;;;;;;;;;;12.62;27.44;99502.66;4452913;32;33726;-81
2022/04/04 05:46:17;;;;;;;;;;;;;;;12.77;27.62;99502.81;4463999;32;34386;-82
2022/04/04 05:48:44;;;;;;;;;;;;;;;12.77;27.50;99496.72;4441817;32;34232;-83
2022/04/04 05:51:13;;;;;;;;;;;;;;;12.14;28.39;99507.34;4438300;32;33626;-83
2022/04/04 05:53:40;;;;;;;;;;;;;;;12.26;27.51;99505.72;4438870;32;33498;-82
2022/04/04 05:56:08;;;;;;;;;;;;;;;11.47;27.67;99505.53;4438607;32;35364;-83
2022/04/04 05:58:36;;;;;;;;;;;;;;;11.62;27.62;99497.97;4452363;32;34607;-82
2022/04/04 06:01:03;;;;;;;;;;;;;;;11.58;27.73;99502.22;4452725;32;34346;-83
2022/04/04 06:03:31;;;;;;;;;;;;;;;11.88;27.69;99501.81;4452245;32;34302;-83
2022/04/04 06:05:58;;;;;;;;;;;;;;;10.83;28.02;99508.84;4452334;32;34215;-82
2022/04/04 06:08:25;;;;;;;;;;;;;;;10.94;27.88;99506.44;4452200;32;35150;-82
2022/04/04 06:10:53;;;;;;;;;;;;;;;9.99;29.67;99510.69;4452198;32;34335;-82
2022/04/04 06:13:20;;;;;;;;;;;;;;;11.00;28.14;99514.34;4452295;32;34966;-83
2022/04/04 06:15:47;;;;;;;;;;;;;;;9.59;29.84;99526.25;4438334;32;34167;-82
2022/04/04 06:18:18;;;;;;;;;;;;;;;10.40;29.13;99515.88;4452299;32;34052;-82
2022/04/04 06:20:45;;;;;;;;;;;;;;;10.60;28.63;99521.41;4438653;32;33052;-82
2022/04/04 06:23:12;;;;;;;;;;;;;;;9.77;30.30;99536.09;4452334;32;33844;-83
2022/04/04 06:25:41;;;;;;;;;;;;;;;9.10;31.17;99533.72;4452298;32;35335;-82
2022/04/04 06:28:09;;;;;;;;;;;;;;;8.92;31.35;99541.91;4438489;32;34152;-83
2022/04/04 06:30:36;;;;;;;;;;;;;;;9.19;31.44;99533.94;4452138;32;33618;-83
2022/04/04 06:33:04;;;;;;;;;;;;;;;10.09;30.57;99529.91;4438121;32;33585;-83
2022/04/04 06:35:31;;;;;;;;;;;;;;;9.08;32.49;99539.69;4452543;32;34234;-82
2022/04/04 06:38:00;;;;;;;;;;;;;;;9.92;30.67;99539.03;4452349;32;34008;-83
2022/04/04 06:40:28;;;;;;;;;;;;;;;9.94;30.30;99539.94;4452072;32;33326;-83
2022/04/04 06:42:56;;;;;;;;;;;;;;;9.25;31.54;99541.84;4438139;32;33706;-83
2022/04/04 06:45:24;;;;;;;;;;;;;;;9.51;31.90;99546.78;4451954;32;34499;-83
2022/04/04 06:47:51;;;;;;;;;;;;;;;8.71;32.35;99546.50;4451955;32;34259;-83
2022/04/04 06:50:19;;;;;;;;;;;;;;;8.16;34.41;99548.44;4452309;32;33639;-83
2022/04/04 06:52:46;;;;;;;;;;;;;;;7.71;33.99;99551.41;4452083;32;34586;-83
2022/04/04 06:55:33;;;;;;;;;;;;;;;8.06;33.99;99556.75;4452346;32;34175;-83
2022/04/04 06:58:00;;;;;;;;;;;;;;;8.89;32.69;99549.56;4451754;32;34299;-83
2022/04/04 07:00:28;;;;;;;;;;;;;;;8.81;31.27;99551.09;4451964;32;33294;-83
2022/04/04 07:02:58;;;;;;;;;;;;;;;8.83;31.43;99553.72;4452086;32;35116;-83
2022/04/04 07:05:25;;;;;;;;;;;;;;;7.81;33.75;99555.16;4452005;32;34392;-83
2022/04/04 07:07:52;;;;;;;;;;;;;;;7.93;33.42;99558.09;4451787;32;34431;-83
2022/04/04 07:10:21;;;;;;;;;;;;;;;8.23;33.39;99549.50;4438159;32;33535;-83
2022/04/04 07:12:49;;;;;;;;;;;;;;;8.56;32.95;99549.59;4451776;32;35013;-83
2022/04/04 07:15:16;;;;;;;;;;;;;;;7.86;34.67;99553.59;4452046;32;33559;-83
2022/04/04 07:17:44;;;;;;;;;;;;;;;7.25;34.71;99549.13;4452007;32;35188;-83
2022/04/04 07:20:13;;;;;;;;;;;;;;;8.20;33.64;99552.84;4452080;32;34851;-83
2022/04/04 07:22:41;;;;;;;;;;;;;;;7.99;33.24;99549.66;4452417;32;33779;-83
2022/04/04 07:25:09;;;;;;;;;;;;;;;8.33;33.45;99550.59;4451894;32;35233;-83
2022/04/04 07:27:39;;;;;;;;;;;;;;;8.80;31.78;99553.66;4437748;32;35062;-83
2022/04/04 07:30:08;;;;;;;;;;;;;;;8.44;31.60;99550.09;4438134;32;34513;-83
2022/04/04 07:32:36;;;;;;;;;;;;;;;8.59;31.17;99538.44;4451451;32;34183;-81
2022/04/04 07:35:03;;;;;;;;;;;;;;;7.85;32.18;99553.56;4451555;32;34377;-83
2022/04/04 07:37:31;;;;;;;;;;;;;;;8.63;31.60;99548.88;4451727;32;34260;-83
2022/04/04 07:39:58;;;;;;;;;;;;;;;9.26;31.21;99553.06;4451569;32;33955;-83
2022/04/04 07:42:25;;;;;;;;;;;;;;;9.96;31.19;99543.44;4451256;32;33968;-83
2022/04/04 07:44:53;;;;;;;;;;;;;;;9.63;30.03;99552.22;4451607;32;34045;-83
2022/04/04 07:47:20;;;;;;;;;;;;;;;10.16;29.90;99543.87;4451769;32;34123;-84
2022/04/04 07:49:47;;;;;;;;;;;;;;;9.99;29.74;99548.69;4451721;32;33169;-83
2022/04/04 07:52:14;;;;;;;;;;;;;;;9.65;29.53;99549.66;4437372;32;33492;-83
2022/04/04 07:54:42;;;;;;;;;;;;;;;9.01;31.32;99546.41;4451598;32;35955;-83
2022/04/04 07:57:09;;;;;;;;;;;;;;;10.29;29.26;99545.88;4437449;32;33613;-84
2022/04/04 07:59:36;;;;;;;;;;;;;;;9.45;29.28;99551.81;4451463;32;33751;-83
2022/04/04 08:02:04;;;;;;;;;;;;;;;9.58;28.88;99540.88;4451481;32;34977;-84
2022/04/04 08:04:32;;;;;;;;;;;;;;;8.72;29.41;99543.97;4451284;32;34546;-83
2022/04/04 08:06:59;;;;;;;;;;;;;;;9.93;28.64;99536.50;4451207;32;34542;-83
2022/04/04 08:09:26;;;;;;;;;;;;;;;9.15;28.64;99545.06;4451493;32;33619;-83
2022/04/04 08:11:54;;;;;;;;;;;;;;;8.78;29.93;99536.34;4451008;32;34115;-84
2022/04/04 08:14:21;;;;;;;;;;;;;;;7.62;32.28;99542.53;4451138;32;34226;-83
2022/04/04 08:16:49;;;;;;;;;;;;;;;7.97;31.81;99535.84;4450929;32;34768;-84
2022/04/04 08:19:17;;;;;;;;;;;;;;;10.06;29.01;99537.59;4450883;32;33687;-83
2022/04/04 08:21:44;;;;;;;;;;;;;;;10.24;27.29;99538.00;4451187;32;33907;-83
2022/04/04 08:24:13;;;;;;;;;;;;;;;10.20;27.69;99535.31;4437048;32;34368;-83
2022/04/04 08:26:40;;;;;;;;;;;;;;;10.78;25.93;99530.38;4436803;32;34203;-83
2022/04/04 08:29:09;;;;;;;;;;;;;;;10.28;26.01;99538.09;4437003;32;33996;-84
2022/04/04 08:31:37;;;;;;;;;;;;;;;9.95;27.68;99528.75;4451102;32;34168;-84
2022/04/04 08:34:05;;;;;;;;;;;;;;;9.66;28.59;99539.34;4450983;32;35321;-84
2022/04/04 08:36:38;;;;;;;;;;;;;;;9.72;28.49;99534.28;4450910;32;34506;-83
2022/04/04 08:39:07;;;;;;;;;;;;;;;10.97;27.41;99527.25;4436956;32;34319;-83
2022/04/04 08:41:34;;;;;;;;;;;;;;;10.29;28.14;99513.91;4451033;32;34050;-83
2022/04/04 08:44:02;;;;;;;;;;;;;;;9.69;30.31;99525.59;4450932;32;35161;-83
2022/04/04 08:46:30;;;;;;;;;;;;;;;10.36;27.58;99515.78;4438969;32;33930;-84
2022/04/04 08:48:58;;;;;;;;;;;;;;;10.83;27.91;99513.16;4452873;32;33687;-83
2022/04/04 08:51:26;;;;;;;;;;;;;;;8.68;32.07;99523.19;4452965;32;35183;-84
2022/04/04 08:53:54;;;;;;;;;;;;;;;9.56;31.92;99519.28;4452772;32;35341;-83
2022/04/04 08:56:23;;;;;;;;;;;;;;;10.89;29.07;99508.09;4438969;32;34110;-84
2022/04/04 08:58:51;;;;;;;;;;;;;;;10.83;29.05;99502.78;4452791;32;33530;-84
2022/04/04 09:01:22;;;;;;;;;;;;;;;10.81;27.95;99494.12;4452785;32;34229;-83
2022/04/04 09:03:53;;;;;;;;;;;;;;;10.99;28.26;99489.25;4453329;32;34132;-84
2022/04/04 09:06:21;;;;;;;;;;;;;;;9.57;30.33;99510.66;4452668;32;34836;-83
2022/04/04 09:08:49;;;;;;;;;;;;;;;8.74;30.71;99505.22;4438724;32;33427;-83
2022/04/04 09:11:16;;;;;;;;;;;;;;;10.46;29.18;99487.47;4453130;32;34848;-83
2022/04/04 09:13:44;;;;;;;;;;;;;;;10.65;28.41;99495.59;4453027;32;34605;-86
2022/04/04 09:16:11;;;;;;;;;;;;;;;8.97;29.86;99496.31;4452679;32;35374;-83
2022/04/04 09:18:41;;;;;;;;;;;;;;;10.47;28.89;99473.66;4452788;32;34234;-83
2022/04/04 09:21:10;;;;;;;;;;;;;;;11.49;27.79;99464.91;4452832;32;34111;-83
2022/04/04 09:23:46;;;;;;;;;;;;;;;10.98;28.19;99478.81;4452445;32;34538;-84
2022/04/04 09:26:32;;;;;;;;;;;;;;;10.83;27.81;99463.88;4452906;32;35122;-87
2022/04/04 09:29:14;;;;;;;;;;;;;;;11.47;28.00;99467.47;4452791;32;33486;-84
2022/04/04 09:32:09;;;;;;;;;;;;;;;10.33;28.96;99467.34;4438852;32;34136;-83
2022/04/04 09:34:57;;;;;;;;;;;;;;;11.18;26.13;99465.34;4452989;32;33972;-84
2022/04/04 09:37:24;;;;;;;;;;;;;;;11.58;26.42;99459.81;4452956;32;33842;-85
2022/04/04 09:40:01;;;;;;;;;;;;;;;11.11;25.48;99447.06;4452876;32;33298;-84
2022/04/04 09:42:40;;;;;;;;;;;;;;;11.20;26.97;99462.75;4440479;32;34331;-83
2022/04/04 09:45:09;;;;;;;;;;;;;;;11.43;26.80;99443.19;4438874;32;33477;-83
2022/04/04 09:47:46;;;;;;;;;;;;;;;10.44;27.52;99437.31;4438586;32;34192;-83
2022/04/04 09:50:32;;;;;;;;;;;;;;;10.04;28.88;99445.16;4452705;32;33563;-83
2022/04/04 09:52:59;;;;;;;;;;;;;;;10.37;27.38;99437.19;4452258;32;34695;-83
2022/04/04 09:55:28;;;;;;;;;;;;;;;9.30;28.89;99442.78;4438493;32;35341;-83
2022/04/04 09:57:56;;;;;;;;;;;;;;;10.11;28.07;99437.53;4452609;32;35170;-84
2022/04/04 10:00:23;;;;;;;;;;;;;;;11.29;26.82;99420.47;4438366;32;34360;-84
2022/04/04 10:02:54;;;;;;;;;;;;;;;10.61;28.20;99432.44;4438586;32;33625;-83
2022/04/04 10:05:23;;;;;;;;;;;;;;;10.45;28.13;99425.22;4438408;32;34440;-83
2022/04/04 10:07:52;;;;;;;;;;;;;;;12.11;27.29;99416.31;4437976;32;34397;-83
2022/04/04 10:10:27;;;;;;;;;;;;;;;11.14;26.73;99403.84;4452443;32;33247;-83
2022/04/04 10:12:55;;;;;;;;;;;;;;;11.73;26.92;99420.19;4452299;32;34532;-83
2022/04/04 10:15:23;;;;;;;;;;;;;;;10.28;29.29;99419.75;4438516;32;34370;-83
2022/04/04 10:17:50;;;;;;;;;;;;;;;12.05;28.22;99411.09;4438557;32;34454;-83
2022/04/04 10:20:18;;;;;;;;;;;;;;;11.84;28.52;99418.62;4452056;32;34338;-83
2022/04/04 10:22:46;;;;;;;;;;;;;;;11.89;27.00;99404.84;4452223;32;34227;-84
2022/04/04 10:25:17;;;;;;;;;;;;;;;12.95;26.59;99402.31;4438551;32;34044;-83
2022/04/04 10:27:45;;;;;;;;;;;;;;;12.83;25.85;99393.56;4438247;32;34466;-83
2022/04/04 10:30:12;;;;;;;;;;;;;;;12.03;26.92;99391.13;4438240;32;33572;-83
2022/04/04 10:32:50;;;;;;;;;;;;;;;12.60;26.81;99389.91;4438448;32;34269;-83
2022/04/04 10:35:28;;;;;;;;;;;;;;;10.09;29.14;99397.78;4452051;32;33879;-83
2022/04/04 10:38:03;;;;;;;;;;;;;;;10.94;28.46;99392.31;4452568;32;34114;-83
2022/04/04 10:40:31;;;;;;;;;;;;;;;11.90;28.36;99395.31;4451967;32;34271;-83
2022/04/04 10:43:02;;;;;;;;;;;;;;;11.25;27.90;99377.16;4452170;32;34233;-84
2022/04/04 10:45:30;;;;;;;;;;;;;;;11.91;26.97;99381.47;4452139;32;34537;-84
2022/04/04 10:48:04;;;;;;;;;;;;;;;12.08;27.75;99379.03;4452250;32;34383;-82
2022/04/04 10:50:33;;;;;;;;;;;;;;;12.25;26.87;99371.41;4452087;32;33759;-83
2022/04/04 10:53:02;;;;;;;;;;;;;;;11.33;26.82;99372.97;4452227;32;35109;-83
2022/04/04 10:55:38;;;;;;;;;;;;;;;11.78;26.76;99366.56;4438219;32;34429;-83
2022/04/04 10:58:19;;;;;;;;;;;;;;;11.08;27.25;99380.41;4452098;32;34646;-83
2022/04/04 11:01:09;;;;;;;;;;;;;;;11.01;27.58;99362.13;4452056;32;33465;-83
2022/04/04 11:03:52;;;;;;;;;;;;;;;11.80;27.61;99368.34;4452161;32;34847;-83
2022/04/04 11:09:15;;;;;;;;;;;;;;;12.74;27.01;99358.81;4439608;32;33953;-84
2022/04/04 11:11:48;;;;;;;;;;;;;;;12.79;25.98;99357.09;4438817;32;33285;-83
2022/04/04 11:14:16;;;;;;;;;;;;;;;12.12;26.61;99360.00;4451432;32;34902;-83
2022/04/04 11:17:02;;;;;;;;;;;;;;;12.01;27.61;99362.53;4451892;32;33757;-83
2022/04/04 11:19:42;;;;;;;;;;;;;;;11.30;29.55;99346.97;4451645;32;34685;-83
2022/04/04 11:22:12;;;;;;;;;;;;;;;12.31;28.57;99350.66;4451864;32;34342;-83
2022/04/04 11:24:39;;;;;;;;;;;;;;;12.35;29.14;99350.72;4437714;32;33968;-83
2022/04/04 11:27:07;;;;;;;;;;;;;;;12.71;29.83;99338.84;4451902;32;33306;-84
2022/04/04 11:29:38;;;;;;;;;;;;;;;12.37;29.16;99343.78;4451765;32;34172;-84
2022/04/04 11:32:08;;;;;;;;;;;;;;;11.48;30.68;99344.59;4451582;32;33616;-83
2022/04/04 11:34:36;;;;;;;;;;;;;;;10.69;32.26;99342.69;4438199;32;34293;-83
2022/04/04 11:37:04;;;;;;;;;;;;;;;10.74;31.68;99341.88;4451836;32;34333;-83
2022/04/04 11:39:32;;;;;;;;;;;;;;;11.57;30.59;99331.72;4451856;32;34003;-83
2022/04/04 11:42:06;;;;;;;;;;;;;;;11.70;30.43;99343.09;4438466;32;34488;-83
2022/04/04 11:44:37;;;;;;;;;;;;;;;11.87;30.06;99340.72;4451519;32;34022;-83
2022/04/04 11:47:05;;;;;;;;;;;;;;;11.39;30.40;99336.69;4451612;32;34059;-85
2022/04/04 11:49:33;;;;;;;;;;;;;;;10.55;31.55;99341.59;4451475;32;34416;-83
2022/04/04 11:52:04;;;;;;;;;;;;;;;10.91;31.22;99338.69;4437448;32;33698;-86
2022/04/04 11:54:58;;;;;;;;;;;;;;;11.43;30.45;99317.69;4438248;32;34982;-83
2022/04/04 11:57:25;;;;;;;;;;;;;;;11.66;30.70;99313.63;4450341;32;34306;-83
2022/04/04 11:59:56;;;;;;;;;;;;;;;11.80;30.93;99320.72;4451639;32;34501;-83
2022/04/04 12:02:23;;;;;;;;;;;;;;;12.11;30.07;99322.75;4452750;32;33971;-82
2022/04/04 12:04:51;;;;;;;;;;;;;;;11.81;30.07;99312.06;4437542;32;34346;-82
2022/04/04 12:07:18;;;;;;;;;;;;;;;11.49;30.43;99301.34;4451328;32;34577;-82
2022/04/04 12:09:51;;;;;;;;;;;;;;;11.11;31.40;99294.84;4464698;32;34468;-83
2022/04/04 12:12:19;;;;;;;;;;;;;;;11.83;31.83;99305.16;4466838;32;33900;-82
2022/04/04 12:14:47;;;;;;;;;;;;;;;12.13;30.73;99300.28;4466762;32;35081;-83
2022/04/04 12:17:14;;;;;;;;;;;;;;;11.88;30.37;99300.91;4466777;32;34379;-83
2022/04/04 12:19:42;;;;;;;;;;;;;;;11.06;31.40;99290.41;4455313;32;35180;-83
2022/04/04 12:24:55;;;;;;;;;;;;;;;12.49;29.63;99272.81;4456531;32;33303;-82
2022/04/04 12:25:01;;;;;;;;;;;;;;;13.28;30.40;99271.50;4446761;32;34290;-82
2022/04/04 12:27:30;;;;;;;;;;;;;;;12.70;29.87;99261.69;4452789;32;35492;-78
2022/04/04 12:29:59;;;;;;;;;;;;;;;12.98;28.75;99257.47;4453079;32;35427;-83
2022/04/04 12:32:27;;;;;;;;;;;;;;;11.97;30.65;99267.22;4451655;32;33211;-81
2022/04/04 12:34:57;;;;;;;;;;;;;;;13.14;28.47;99248.00;4454238;32;34017;-82
2022/04/04 12:37:37;;;;;;;;;;;;;;;12.29;30.54;99244.06;4451561;32;34148;-82
2022/04/04 12:40:14;;;;;;;;;;;;;;;13.05;28.91;99238.41;4457275;32;34146;-84
2022/04/04 12:42:42;;;;;;;;;;;;;;;13.17;28.55;99229.78;4468301;32;34485;-85
2022/04/04 12:45:12;;;;;;;;;;;;;;;13.43;28.31;99226.44;4468392;32;33949;-83
2022/04/04 12:48:04;;;;;;;;;;;;;;;13.10;29.49;99225.41;4468239;32;34396;-84
2022/04/04 12:50:39;;;;;;;;;;;;;;;12.44;29.34;99219.91;4454471;32;34877;-82
2022/04/04 12:53:07;;;;;;;;;;;;;;;13.09;28.79;99219.34;4471226;32;33421;-82
2022/04/04 12:55:35;;;;;;;;;;;;;;;13.35;27.82;99211.66;4463038;32;34981;-84
2022/04/04 12:58:16;;;;;;;;;;;;;;;13.53;28.61;99218.63;4454987;32;34249;-84
2022/04/04 13:00:43;;;;;;;;;;;;;;;13.52;28.42;99214.28;4451605;32;881939;-80
2022/04/04 13:03:22;;;;;;;;;;;;;;;13.51;27.89;99202.13;4469491;32;33659;-81
2022/04/04 13:05:52;;;;;;;;;;;;;;;11.39;30.48;99214.69;4468163;32;34110;-81
2022/04/04 13:08:20;;;;;;;;;;;;;;;12.27;29.64;99198.13;4461458;32;35260;-86
2022/04/04 13:11:01;;;;;;;;;;;;;;;13.07;28.83;99195.06;4454263;32;34747;-80